• Join FlightAware (Why Join?)
  • Login
  • US Flag 
09:01PM EST


 

Airport Tracker/Info


-or-


 

Live Flight TrackerFlight Track Log ✈ DAL1836 ✈ 11-May-2013 ✈ KCHS - KATL

Flight Track Log - Related Links

Times and Time Zones

All times are in EDT time to prevent confusion due to time zone crossing. See the DAL1836 flight status page for this flight to view local times or setup timezone preferences in your user account.

Time Position Orientation Groundspeed Altitude Reporting Facility
EDT Latitude Longitude Course Direction KTS MPH feet Rate Location/Type
06:40AM 32.9333 -80.4593 270° West  Level FlightAware Approximate
06:40AM 32.8980 -80.3160 276° West 279 321 11,000  Level FlightAware
06:41AM 32.9389 -80.5773 276° West  Level FlightAware Approximate
06:41AM 32.9140 -80.3940 284° West 327 376 12,900  Level FlightAware
06:42AM 32.9300 -80.4640 285° West 362 417 14,500 2,520 Climbing FlightAware
06:42AM 32.9430 -80.5440 281° West 383 441 16,300 2,820 Climbing FlightAware
06:43AM 32.9500 -80.6350 275° West 400 460 18,300 2,940 Climbing FlightAware
06:44AM 32.9380 -80.7320 262° West 408 470 20,500 2,460 Climbing FlightAware
06:44AM 32.9210 -80.8310 258° West 416 479 22,000 1,020 Climbing FlightAware
06:45AM 32.9060 -80.9210 259° West 415 478 22,000  Level FlightAware
06:46AM 32.8880 -81.0220 258° West 414 476 22,000  Level FlightAware
06:47AM 32.8740 -81.1030 258° West 413 475 22,000  Level FlightAware
06:47AM 32.8590 -81.1950 259° West 414 476 22,000  Level FlightAware
06:48AM 32.8400 -81.3000 258° West 414 476 22,000  Level FlightAware
06:49AM 32.8250 -81.3890 259° West 414 476 22,000  Level FlightAware
06:49AM 32.8120 -81.4590 258° West 414 476 22,000  Level FlightAware
06:51AM 32.7980 -81.5500 260° West 414 476 22,000 -60 Level FlightAware
06:52AM 32.8040 -81.5120 79° East 415 478 21,900 -840 Descending FlightAware
06:52AM 32.7800 -81.8720 266° West 408 470 20,700 -1,500 Descending FlightAware
06:53AM 32.7900 -81.9180 285° West 402 463 20,400 -660 Descending FlightAware
06:53AM 32.8120 -82.0120 286° West 398 458 20,000 -300 Descending FlightAware
06:54AM 32.8320 -82.0970 286° West 397 457 20,000  Level FlightAware
06:55AM 32.8510 -82.1800 285° West 399 459 20,000  Level FlightAware
06:55AM 32.8710 -82.2670 285° West 403 464 20,000  Level FlightAware
06:56AM 32.8930 -82.3610 286° West 402 463 20,000  Level FlightAware
06:57AM 32.9150 -82.4570 285° West 401 461 20,000  Level FlightAware
06:57AM 32.9310 -82.5240 286° West 401 461 20,000  Level FlightAware
06:59AM 32.9620 -82.6700 284° West 398 458 20,000  Level FlightAware
06:59AM 32.9760 -82.7420 283° West 398 458 20,000  Level FlightAware
07:00AM 33.0100 -82.8720 287° West 401 461 20,000  Level FlightAware
07:01AM 33.0300 -82.9590 285° West 401 461 20,000  Level FlightAware
07:02AM 33.0480 -83.0310 287° West 401 461 20,000  Level FlightAware
07:02AM 33.0700 -83.1210 286° West 401 461 20,000  Level FlightAware
07:03AM 33.0870 -83.1940 286° West 401 461 20,000  Level FlightAware
07:04AM 33.1040 -83.2660 286° West 401 461 20,000 -660 Level FlightAware
07:04AM 33.1300 -83.4110 282° West 403 464 19,200 -2,400 Descending FlightAware
07:05AM 33.1510 -83.5060 285° West 388 447 16,800 -3,240 Descending FlightAware
07:06AM 33.1740 -83.6110 285° West 373 429 14,100 -1,920 Descending FlightAware
07:07AM 33.1880 -83.6730 285° West 373 429 14,100 -1,020 Level FlightAware
07:08AM 33.2090 -83.7750 284° West 315 362 12,500 -1,260 Descending FlightAware
07:08AM 33.2290 -83.8370 291° West 286 329 11,900 -480 Descending FlightAware
07:09AM 33.2470 -83.8870 293° West 286 329 11,900  Level FlightAware
07:10AM 33.2650 -83.9360 294° West 286 329 11,900 -3,420 Level FlightAware
07:10AM 33.3078 -83.9494 294° West 277 319 8,800 -3,240 Descending Atlanta Center
07:11AM 33.3539 -84.0164 310° West 272 313 7,900 -1,320 Descending Atlanta Center
07:12AM 33.4186 -84.0561 333° Northwest 260 299 6,200 -1,500 Descending Atlanta Center
07:13AM 33.4792 -84.1186 319° Northwest 260 299 4,900 -1,380 Descending Atlanta Center
07:14AM 33.5333 -84.1667 324° Northwest 251 289 3,500 -1,020 Descending Atlanta TRACON
07:15AM 33.5833 -84.2167 320° Northwest 228 262 2,900 -600 Descending Atlanta TRACON